RDR Airport (Grand Forks Afb) Information

FAA: RDR - ICAO: KRDR

RDR Airport Location

State North Dakota
County Grand Forks
City Grand Forks
RDR Airport is 13 miles west of Grand Forks, ND.
Latitude 47-57-40.6100N
Longitude 097-24-02.9200W
Elevation 911ft

KRDR Airport METARs

METAR KRDR 250056Z AUTO 07006KT 10SM OVC085 06/01 A3007 RMK AO2 SLP198 T00570005 VISNO RWY17 $
Altimeter 30.07"
Temperature 5.7°C (42.3°F)
Wind 70° at 6KT
Clouds overcast at 8,500ft
Visibility 10.0mi
Time observed: 2021-10-25T00:56:00Z

RDR Airport Details

Status Operational
Activation N/A
Ownership Military - Air Force
Usage Private
Chart TWIN CITIES
ATC on-site Yes
Beacon schedule sunset-sunrise
Beacon color split clear green

RDR Airport Contacts

Owner USAF
Owner address GRAND FORKS AFB, GRAND FORKS, ND 58201
Owner phone 701-747-4409
Manager SHAWN DOBBERSTEIN
Manager address PO BOX 2845, FARGO, ND 58108
Manager phone 701-241-1501

RDR Airport (Grand Forks Afb) Radio Frequencies

RDR (Airport) Radio Frequencies

UNICOM N/A
Common traffic advisory frequency (CTAF) N/A